createdAt,value
2022-10-03T00:03:14.458Z,21.35
2022-10-03T00:06:12.206Z,22.42
2022-10-03T00:09:03.187Z,23.55
2022-10-03T00:11:53.556Z,22.05
2022-10-03T00:14:42.188Z,24.50
2022-10-03T00:17:35.576Z,24.45
2022-10-03T00:20:51.210Z,26.17
2022-10-03T00:23:55.494Z,26.05
2022-10-03T00:27:03.129Z,25.17
2022-10-03T00:30:16.100Z,26.05
2022-10-03T00:33:10.110Z,25.05
2022-10-03T00:36:15.453Z,24.42
2022-10-03T00:39:42.200Z,24.95
2022-10-03T00:42:30.516Z,24.65
2022-10-03T00:45:37.217Z,26.00
2022-10-03T00:48:57.483Z,25.30
2022-10-03T00:52:10.123Z,25.67
2022-10-03T00:55:24.049Z,24.70
2022-10-03T00:58:31.192Z,25.20
2022-10-03T01:01:44.679Z,26.13
2022-10-03T01:05:13.175Z,27.35
2022-10-03T01:08:13.463Z,26.20
2022-10-03T01:11:26.196Z,27.15
2022-10-03T01:14:23.460Z,26.42
2022-10-03T01:17:30.204Z,27.15
2022-10-03T01:20:36.603Z,29.02
2022-10-03T01:23:34.201Z,29.30
2022-10-03T01:26:55.485Z,28.92
2022-10-03T01:30:10.199Z,30.80
2022-10-03T01:33:02.464Z,30.88
2022-10-03T01:36:34.197Z,30.27
2022-10-03T01:40:08.161Z,29.85
2022-10-03T01:43:10.100Z,29.38
2022-10-03T01:46:39.248Z,30.73
2022-10-03T01:49:42.187Z,31.73
2022-10-03T01:52:45.175Z,31.30
2022-10-03T01:56:05.050Z,32.47
2022-10-03T01:59:04.110Z,32.05
2022-10-03T02:01:51.559Z,31.63
2022-10-03T02:04:49.252Z,31.63
2022-10-03T02:07:56.169Z,32.13
2022-10-03T02:11:10.183Z,32.30
2022-10-03T02:14:39.487Z,33.47
2022-10-03T02:18:06.194Z,29.52
2022-10-03T02:21:07.108Z,31.90
2022-10-03T02:23:58.201Z,31.98
2022-10-03T02:27:15.559Z,35.55
2022-10-03T02:30:19.186Z,34.00
2022-10-03T02:33:49.105Z,36.10
2022-10-03T02:36:52.099Z,39.42
2022-10-03T02:40:08.190Z,40.30
2022-10-03T02:43:23.091Z,40.33
2022-10-03T02:46:41.103Z,41.58
2022-10-03T02:50:04.170Z,41.67
2022-10-03T02:53:21.187Z,46.38
2022-10-03T02:56:37.479Z,45.92
2022-10-03T02:59:40.200Z,46.63
2022-10-03T03:03:03.325Z,47.53
2022-10-03T03:06:12.192Z,44.75
2022-10-03T03:09:27.096Z,46.75
2022-10-03T03:12:31.162Z,44.60
2022-10-03T03:15:35.167Z,41.25
2022-10-03T03:18:50.084Z,39.70
2022-10-03T03:21:53.513Z,38.58
2022-10-03T03:25:09.175Z,39.42
2022-10-03T03:28:36.104Z,37.42
2022-10-03T03:31:32.208Z,35.55
2022-10-03T03:34:46.529Z,37.83
2022-10-03T03:37:47.182Z,36.08
2022-10-03T03:40:54.483Z,36.65
2022-10-03T03:43:45.187Z,36.67
2022-10-03T03:46:48.117Z,38.45
2022-10-03T03:50:07.093Z,36.33
2022-10-03T03:53:02.108Z,34.90
2022-10-03T03:56:30.178Z,36.33
2022-10-03T03:59:49.349Z,34.40
2022-10-03T04:03:00.164Z,32.58
2022-10-03T04:06:14.185Z,36.00
2022-10-03T04:09:18.035Z,34.50
2022-10-03T04:12:17.184Z,33.15
2022-10-03T04:15:35.613Z,31.73
2022-10-03T04:19:08.097Z,30.13
2022-10-03T04:22:09.168Z,28.30
2022-10-03T04:25:27.434Z,31.25
2022-10-03T04:28:41.085Z,32.00
2022-10-03T04:31:49.207Z,32.65
2022-10-03T04:34:37.469Z,31.05
2022-10-03T04:37:53.093Z,31.63
2022-10-03T04:41:03.166Z,32.03
2022-10-03T04:44:04.105Z,32.75
2022-10-03T04:47:02.165Z,32.33
2022-10-03T04:50:11.057Z,32.75
2022-10-03T04:53:12.095Z,32.53
2022-10-03T04:56:20.159Z,30.52
2022-10-03T04:59:35.109Z,28.98
2022-10-03T05:02:38.514Z,24.13
2022-10-03T05:05:39.103Z,24.33
2022-10-03T05:08:27.445Z,23.75
2022-10-03T05:11:54.166Z,23.65
2022-10-03T05:14:58.119Z,27.55
2022-10-03T05:18:11.184Z,25.13
2022-10-03T05:21:28.171Z,24.13
2022-10-03T05:24:53.287Z,26.60
2022-10-03T05:28:01.153Z,26.55
2022-10-03T05:31:11.225Z,28.42
2022-10-03T05:34:19.453Z,30.25
2022-10-03T05:37:14.179Z,30.65
2022-10-03T05:40:10.463Z,33.50
2022-10-03T05:43:08.101Z,34.50
2022-10-03T05:46:45.104Z,37.17
2022-10-03T05:50:21.473Z,30.50
2022-10-03T05:53:29.084Z,27.05
2022-10-03T05:56:17.486Z,19.95
2022-10-03T05:59:06.126Z,17.45
2022-10-03T06:02:21.659Z,20.48
2022-10-03T06:05:38.123Z,21.88
2022-10-03T06:08:29.509Z,20.60
2022-10-03T06:11:27.195Z,18.30
2022-10-03T06:14:42.130Z,16.70
2022-10-03T06:18:19.138Z,15.45
2022-10-03T06:21:28.511Z,13.65
2022-10-03T06:24:19.515Z,14.00
2022-10-03T06:27:14.443Z,13.15
2022-10-03T06:30:25.164Z,11.55
2022-10-03T06:33:23.197Z,10.18
2022-10-03T06:36:42.542Z,9.95
2022-10-03T06:40:21.223Z,9.98
2022-10-03T06:43:31.217Z,9.85
2022-10-03T06:47:02.217Z,9.68
2022-10-03T06:50:04.171Z,9.85
2022-10-03T06:53:26.171Z,9.32
2022-10-03T06:56:33.057Z,9.95
2022-10-03T06:59:31.208Z,10.32
2022-10-03T07:02:47.205Z,10.88
2022-10-03T07:05:43.276Z,9.75
2022-10-03T07:08:37.843Z,10.02
2022-10-03T07:11:54.078Z,10.65
2022-10-03T07:15:05.094Z,10.35
2022-10-03T07:18:10.932Z,8.82
2022-10-03T07:21:33.218Z,7.88
2022-10-03T07:24:35.414Z,7.40
2022-10-03T07:27:38.244Z,7.18
2022-10-03T07:30:33.504Z,8.07
2022-10-03T07:33:40.258Z,7.15
2022-10-03T07:37:28.751Z,7.45
2022-10-03T07:40:48.207Z,7.10
2022-10-03T07:43:57.549Z,6.80
2022-10-03T07:47:10.164Z,6.65
2022-10-03T07:50:08.527Z,6.85
2022-10-03T07:53:20.089Z,6.75
2022-10-03T07:56:25.020Z,7.22
2022-10-03T07:59:38.112Z,6.38
2022-10-03T08:02:58.284Z,6.40
2022-10-03T08:06:29.468Z,7.05
2022-10-03T08:09:41.224Z,6.80
2022-10-03T08:13:03.603Z,7.60
2022-10-03T08:16:10.779Z,8.40
2022-10-03T08:19:30.514Z,8.20
2022-10-03T08:22:50.272Z,6.95
2022-10-03T08:26:00.688Z,7.25
2022-10-03T08:29:16.095Z,8.13
2022-10-03T08:32:48.408Z,7.47
2022-10-03T08:35:48.168Z,9.75
2022-10-03T08:38:55.985Z,8.85
2022-10-03T08:42:15.111Z,9.70
2022-10-03T08:45:24.577Z,9.27
2022-10-03T08:48:44.194Z,9.85
2022-10-03T08:51:54.570Z,11.50
2022-10-03T08:54:53.232Z,12.00
2022-10-03T08:58:03.155Z,13.15
2022-10-03T09:01:00.131Z,11.55
2022-10-03T09:04:13.159Z,11.98
2022-10-03T09:07:33.162Z,12.00
2022-10-03T09:10:31.208Z,10.52
2022-10-03T09:13:26.130Z,9.60
2022-10-03T09:16:31.159Z,9.13
2022-10-03T09:19:31.613Z,8.18
2022-10-03T09:22:46.098Z,7.35
2022-10-03T09:26:00.597Z,6.82
2022-10-03T09:29:20.218Z,9.85
2022-10-03T09:32:35.535Z,8.00
2022-10-03T09:35:59.077Z,8.57
2022-10-03T09:39:02.857Z,7.60
2022-10-03T09:42:32.224Z,8.32
2022-10-03T09:45:52.151Z,8.35
2022-10-03T09:48:59.098Z,7.88
2022-10-03T09:51:52.660Z,8.43
2022-10-03T09:54:56.107Z,6.78
2022-10-03T09:57:44.548Z,6.82
2022-10-03T10:00:55.310Z,6.35
2022-10-03T10:04:14.531Z,6.00
2022-10-03T10:07:35.208Z,6.35
2022-10-03T10:10:45.219Z,8.75
2022-10-03T10:14:06.113Z,6.82
2022-10-03T10:17:16.159Z,7.25
2022-10-03T10:20:25.065Z,7.80
2022-10-03T10:23:08.822Z,7.47
2022-10-03T10:26:25.307Z,9.05
2022-10-03T10:29:18.868Z,9.00
2022-10-03T10:32:39.192Z,10.73
2022-10-03T10:36:14.336Z,8.13
2022-10-03T10:39:05.465Z,8.77
2022-10-03T10:42:18.232Z,11.27
2022-10-03T10:45:32.187Z,11.27
2022-10-03T10:48:48.476Z,11.32
2022-10-03T10:51:39.117Z,11.68
2022-10-03T10:55:05.198Z,11.05
2022-10-03T10:58:42.219Z,12.18
2022-10-03T11:02:11.215Z,12.10
2022-10-03T11:05:30.628Z,11.18
2022-10-03T11:08:39.236Z,11.60
2022-10-03T11:11:45.516Z,11.23
2022-10-03T11:19:10.076Z,9.02
2022-10-03T11:22:01.776Z,9.52
2022-10-03T11:25:02.294Z,9.93
2022-10-03T11:28:04.608Z,10.75
2022-10-03T11:31:36.320Z,10.30
2022-10-03T11:37:35.490Z,9.98
2022-10-03T11:40:45.123Z,10.23
2022-10-03T11:44:20.282Z,9.55
2022-10-03T11:47:32.620Z,10.15
2022-10-03T11:50:43.187Z,10.80
2022-10-03T11:53:50.888Z,10.60
2022-10-03T11:56:43.468Z,10.25
2022-10-03T11:59:50.500Z,9.77
2022-10-03T12:02:46.196Z,12.77
2022-10-03T12:06:22.203Z,12.35
2022-10-03T12:10:05.785Z,11.57
2022-10-03T12:12:51.206Z,11.73
2022-10-03T12:16:00.066Z,11.82
2022-10-03T12:18:50.264Z,11.98
2022-10-03T12:22:08.558Z,12.00
2022-10-03T12:24:53.216Z,13.02
2022-10-03T12:28:19.515Z,12.63
2022-10-03T12:31:23.246Z,13.95
2022-10-03T12:34:41.514Z,13.32
2022-10-03T12:37:49.448Z,13.43
2022-10-03T12:41:07.178Z,15.10
2022-10-03T12:44:21.451Z,14.48
2022-10-03T12:47:54.726Z,17.08
2022-10-03T12:51:18.427Z,16.15
2022-10-03T12:54:26.811Z,15.93
2022-10-03T12:57:39.492Z,16.58
2022-10-03T13:00:34.211Z,15.73
2022-10-03T13:03:27.113Z,17.92
2022-10-03T13:06:16.225Z,19.48
2022-10-03T13:09:07.458Z,17.77
2022-10-03T13:12:07.239Z,17.38
2022-10-03T13:15:24.787Z,18.23
2022-10-03T13:18:35.171Z,20.13
2022-10-03T13:21:51.131Z,18.10
2022-10-03T13:24:48.160Z,19.35
2022-10-03T13:27:40.449Z,19.52
2022-10-03T13:30:38.253Z,19.30
2022-10-03T13:33:24.520Z,18.75
2022-10-03T13:36:41.155Z,18.95
2022-10-03T13:39:34.454Z,18.55
2022-10-03T13:42:41.067Z,19.35
2022-10-03T13:45:30.494Z,17.73
2022-10-03T13:48:29.214Z,18.55
2022-10-03T13:51:23.086Z,18.27
2022-10-03T13:54:23.483Z,17.58
2022-10-03T13:57:33.009Z,17.80
2022-10-03T14:00:29.188Z,18.15
2022-10-03T14:04:01.504Z,18.35
2022-10-03T14:07:04.231Z,19.35
2022-10-03T14:10:19.526Z,18.20
2022-10-03T14:13:25.170Z,19.10
2022-10-03T14:16:23.122Z,18.65
2022-10-03T14:19:23.273Z,21.08
2022-10-03T14:22:23.803Z,19.85
2022-10-03T14:25:50.096Z,20.20
2022-10-03T14:29:07.563Z,20.60
2022-10-03T14:32:46.848Z,19.58
2022-10-03T14:35:45.755Z,18.73
2022-10-03T14:39:06.511Z,19.98
2022-10-03T14:42:10.136Z,20.10
2022-10-03T14:45:14.697Z,20.02
2022-10-03T14:48:01.053Z,20.23
2022-10-03T14:50:44.836Z,19.38
2022-10-03T14:53:39.185Z,20.67
2022-10-03T14:56:36.146Z,21.95
2022-10-03T14:59:32.157Z,20.77
2022-10-03T15:02:39.740Z,21.42
2022-10-03T15:05:43.157Z,22.73
2022-10-03T15:08:27.594Z,23.67
2022-10-03T15:11:18.075Z,23.95
2022-10-03T15:14:15.067Z,24.73
2022-10-03T15:16:59.380Z,24.70
2022-10-03T15:20:12.163Z,29.02
2022-10-03T15:22:57.913Z,26.55
2022-10-03T15:26:01.085Z,27.13
2022-10-03T15:29:13.526Z,27.83
2022-10-03T15:31:57.199Z,27.48
2022-10-03T15:34:42.499Z,27.85
2022-10-03T15:37:36.059Z,28.38
2022-10-03T15:40:38.163Z,28.92
2022-10-03T15:43:30.074Z,28.85
2022-10-03T15:46:41.804Z,27.45
2022-10-03T15:49:39.487Z,28.63
2022-10-03T15:52:55.588Z,28.58
2022-10-03T15:56:11.255Z,29.10
2022-10-03T15:59:10.009Z,28.38
2022-10-03T16:01:56.245Z,27.23
2022-10-03T16:04:45.514Z,27.35
2022-10-03T16:07:27.177Z,29.50
2022-10-03T16:10:28.619Z,27.75
2022-10-03T16:13:39.046Z,29.95
2022-10-03T16:16:41.189Z,30.60
2022-10-03T16:19:38.982Z,29.92
2022-10-03T16:22:48.091Z,30.50
2022-10-03T16:25:42.071Z,30.92
2022-10-03T16:28:42.579Z,31.75
2022-10-03T16:31:33.101Z,30.98
2022-10-03T16:34:19.827Z,31.67
2022-10-03T16:37:10.161Z,32.17
2022-10-03T16:40:10.525Z,31.85
2022-10-03T16:42:54.166Z,31.55
2022-10-03T16:45:47.301Z,31.40
2022-10-03T16:49:01.064Z,31.33
2022-10-03T16:51:55.057Z,31.92
2022-10-03T16:54:38.508Z,31.55
2022-10-03T16:57:42.156Z,30.13
2022-10-03T17:01:28.054Z,31.67
2022-10-03T17:04:44.054Z,30.83
2022-10-03T17:07:39.183Z,32.72
2022-10-03T17:10:45.565Z,32.78
2022-10-03T17:13:52.105Z,31.70
2022-10-03T17:16:49.730Z,31.35
2022-10-03T17:19:47.157Z,33.10
2022-10-03T17:22:42.297Z,32.72
2022-10-03T17:25:40.348Z,33.38
2022-10-03T17:28:45.172Z,33.78
2022-10-03T17:31:57.754Z,33.55
2022-10-03T17:34:57.207Z,33.88
2022-10-03T17:38:24.500Z,33.13
2022-10-03T17:41:44.497Z,34.63
2022-10-03T17:44:52.718Z,31.77
2022-10-03T17:48:04.622Z,31.70
2022-10-03T17:51:02.544Z,33.70
2022-10-03T17:53:48.197Z,33.78
2022-10-03T17:56:41.415Z,33.03
2022-10-03T17:59:37.868Z,34.03
2022-10-03T18:02:52.325Z,33.58
2022-10-03T18:05:47.658Z,34.90
2022-10-03T18:08:40.287Z,32.47
2022-10-03T18:11:30.347Z,32.45
2022-10-03T18:14:56.065Z,33.63
2022-10-03T18:18:02.886Z,33.53
2022-10-03T18:21:14.302Z,32.10
2022-10-03T18:23:56.598Z,33.47
2022-10-03T18:27:01.765Z,34.50
2022-10-03T18:29:48.469Z,31.98
2022-10-03T18:32:40.235Z,30.77
2022-10-03T18:35:26.809Z,29.95
2022-10-03T18:38:29.180Z,31.80
2022-10-03T18:41:17.384Z,31.85
2022-10-03T18:44:13.165Z,32.72
2022-10-03T18:47:23.601Z,33.13
2022-10-03T18:50:25.159Z,32.17
2022-10-03T18:53:34.081Z,31.17
2022-10-03T18:56:26.089Z,31.98
2022-10-03T18:59:50.082Z,32.90
2022-10-03T19:02:40.603Z,31.40
2022-10-03T19:05:31.189Z,30.10
2022-10-03T19:08:36.586Z,32.67
2022-10-03T19:11:49.113Z,31.15
2022-10-03T19:14:47.242Z,31.30
2022-10-03T19:17:53.380Z,31.88
2022-10-03T19:20:47.051Z,31.23
2022-10-03T19:23:49.492Z,31.17
2022-10-03T19:26:38.089Z,32.42
2022-10-03T19:29:37.487Z,30.70
2022-10-03T19:32:31.164Z,32.22
2022-10-03T19:35:24.561Z,32.75
2022-10-03T19:38:24.078Z,32.80
2022-10-03T19:41:31.617Z,34.25
2022-10-03T19:44:29.141Z,31.77
2022-10-03T19:47:22.564Z,36.25
2022-10-03T19:50:29.048Z,35.67
2022-10-03T19:53:26.479Z,39.88
2022-10-03T19:56:12.043Z,36.38
2022-10-03T19:59:19.972Z,35.88
2022-10-03T20:02:15.276Z,37.08
2022-10-03T20:05:00.478Z,35.10
2022-10-03T20:07:54.110Z,35.03
2022-10-03T20:10:53.737Z,34.03
2022-10-03T20:13:42.136Z,34.80
2022-10-03T20:16:31.101Z,36.15
2022-10-03T20:19:34.116Z,38.35
2022-10-03T20:22:27.062Z,36.80
2022-10-03T20:25:31.965Z,35.88
2022-10-03T20:28:32.191Z,35.03
2022-10-03T20:31:32.438Z,35.90
2022-10-03T20:34:22.131Z,35.40
2022-10-03T20:37:34.977Z,33.88
2022-10-03T20:40:28.107Z,33.95
2022-10-03T20:43:51.447Z,33.55
2022-10-03T20:46:56.129Z,33.67
2022-10-03T20:49:56.039Z,33.25
2022-10-03T20:52:39.469Z,34.33
2022-10-03T20:55:33.031Z,34.58
2022-10-03T20:58:55.123Z,35.50
2022-10-03T21:01:46.108Z,33.72
2022-10-03T21:04:33.549Z,33.78
2022-10-03T21:07:25.169Z,34.03
2022-10-03T21:10:23.253Z,35.63
2022-10-03T21:13:37.424Z,36.38
2022-10-03T21:16:31.088Z,36.47
2022-10-03T21:19:36.186Z,35.95
2022-10-03T21:22:33.023Z,35.50
2022-10-03T21:25:33.988Z,35.88
2022-10-03T21:28:40.133Z,35.47
2022-10-03T21:31:36.417Z,35.72
2022-10-03T21:34:30.033Z,34.67
2022-10-03T21:37:25.952Z,36.05
2022-10-03T21:40:34.120Z,34.42
2022-10-03T21:43:36.127Z,33.92
2022-10-03T21:46:59.450Z,34.03
2022-10-03T21:50:10.114Z,32.95
2022-10-03T21:52:58.409Z,33.10
2022-10-03T21:56:04.254Z,32.00
2022-10-03T21:59:10.482Z,31.63
2022-10-03T22:02:27.157Z,32.58
2022-10-03T22:05:29.406Z,30.85
2022-10-03T22:08:40.119Z,32.20
2022-10-03T22:11:37.677Z,28.85
2022-10-03T22:15:00.035Z,29.52
2022-10-03T22:17:57.428Z,31.30
2022-10-03T22:21:15.143Z,29.42
2022-10-03T22:24:22.021Z,28.60
2022-10-03T22:27:34.029Z,31.55
2022-10-03T22:30:22.414Z,28.67
2022-10-03T22:33:26.135Z,29.25
2022-10-03T22:36:11.381Z,28.38
2022-10-03T22:39:01.057Z,31.67
2022-10-03T22:41:44.603Z,30.60
2022-10-03T22:44:36.029Z,29.67
2022-10-03T22:47:37.119Z,30.33
2022-10-03T22:50:28.033Z,29.15
2022-10-03T22:53:18.123Z,28.25
2022-10-03T22:56:08.020Z,28.75
2022-10-03T22:58:57.125Z,28.85
2022-10-03T23:01:50.424Z,28.05
2022-10-03T23:04:46.045Z,27.80
2022-10-03T23:07:52.405Z,24.58
2022-10-03T23:10:57.139Z,26.33
2022-10-03T23:13:51.719Z,23.25
2022-10-03T23:17:01.058Z,22.92
2022-10-03T23:20:08.986Z,22.77
2022-10-03T23:23:03.115Z,21.25
2022-10-03T23:26:25.805Z,20.13
2022-10-03T23:29:26.110Z,19.13
2022-10-03T23:32:17.680Z,20.05
2022-10-03T23:35:29.072Z,19.90
2022-10-03T23:38:44.043Z,21.27
2022-10-03T23:41:50.347Z,20.58
2022-10-03T23:44:58.120Z,20.52
2022-10-03T23:48:15.340Z,20.15
2022-10-03T23:51:16.935Z,20.38
2022-10-03T23:54:03.643Z,19.55
2022-10-03T23:56:55.033Z,20.67
2022-10-03T23:59:53.126Z,19.60
